sensor_id;sensor_type;location;lat;lon;timestamp;P1;durP1;ratioP1;P2;durP2;ratioP2
42802;SDS011;28447;48.682;9.022;2024-03-25T05:01:42;12.67;;;6.80;;
42802;SDS011;28447;48.682;9.022;2024-03-25T05:04:07;12.93;;;6.50;;
42802;SDS011;28447;48.682;9.022;2024-03-25T05:06:34;8.67;;;4.47;;
42802;SDS011;28447;48.682;9.022;2024-03-25T05:09:00;11.40;;;5.03;;
42802;SDS011;28447;48.682;9.022;2024-03-25T05:11:26;11.00;;;5.20;;
42802;SDS011;28447;48.682;9.022;2024-03-25T05:13:52;15.03;;;5.03;;
42802;SDS011;28447;48.682;9.022;2024-03-25T05:16:18;7.80;;;4.73;;
42802;SDS011;28447;48.682;9.022;2024-03-25T05:18:44;7.50;;;4.20;;
42802;SDS011;28447;48.682;9.022;2024-03-25T05:21:10;8.10;;;4.80;;
42802;SDS011;28447;48.682;9.022;2024-03-25T05:23:36;8.60;;;4.50;;
42802;SDS011;28447;48.682;9.022;2024-03-25T05:26:02;9.67;;;5.07;;
42802;SDS011;28447;48.682;9.022;2024-03-25T05:28:28;10.13;;;5.40;;
42802;SDS011;28447;48.682;9.022;2024-03-25T05:30:54;8.03;;;5.10;;
42802;SDS011;28447;48.682;9.022;2024-03-25T05:33:20;7.90;;;5.40;;
42802;SDS011;28447;48.682;9.022;2024-03-25T05:35:46;8.50;;;4.50;;
42802;SDS011;28447;48.682;9.022;2024-03-25T05:38:12;7.53;;;4.83;;
42802;SDS011;28447;48.682;9.022;2024-03-25T05:40:38;8.43;;;4.80;;
42802;SDS011;28447;48.682;9.022;2024-03-25T05:43:04;6.97;;;4.90;;
42802;SDS011;28447;48.682;9.022;2024-03-25T05:45:30;9.30;;;5.13;;
42802;SDS011;28447;48.682;9.022;2024-03-25T05:47:56;8.30;;;4.83;;
42802;SDS011;28447;48.682;9.022;2024-03-25T05:50:22;7.07;;;5.13;;
42802;SDS011;28447;48.682;9.022;2024-03-25T05:52:48;9.57;;;5.40;;
42802;SDS011;28447;48.682;9.022;2024-03-25T05:55:14;10.97;;;5.90;;
42802;SDS011;28447;48.682;9.022;2024-03-25T05:57:40;8.97;;;5.80;;
42802;SDS011;28447;48.682;9.022;2024-03-25T06:00:06;12.23;;;6.30;;
42802;SDS011;28447;48.682;9.022;2024-03-25T06:02:32;8.83;;;5.20;;
42802;SDS011;28447;48.682;9.022;2024-03-25T06:04:58;11.27;;;5.50;;
42802;SDS011;28447;48.682;9.022;2024-03-25T06:07:24;9.93;;;5.77;;
42802;SDS011;28447;48.682;9.022;2024-03-25T06:09:50;9.30;;;4.40;;
42802;SDS011;28447;48.682;9.022;2024-03-25T06:12:16;8.40;;;5.47;;
42802;SDS011;28447;48.682;9.022;2024-03-25T06:14:42;9.30;;;5.30;;
42802;SDS011;28447;48.682;9.022;2024-03-25T06:17:09;10.60;;;5.17;;
42802;SDS011;28447;48.682;9.022;2024-03-25T06:19:35;9.60;;;5.13;;
42802;SDS011;28447;48.682;9.022;2024-03-25T06:22:01;8.30;;;4.63;;
42802;SDS011;28447;48.682;9.022;2024-03-25T06:24:27;7.17;;;4.60;;
42802;SDS011;28447;48.682;9.022;2024-03-25T06:26:53;9.70;;;5.03;;
42802;SDS011;28447;48.682;9.022;2024-03-25T06:29:19;14.43;;;5.37;;
42802;SDS011;28447;48.682;9.022;2024-03-25T06:31:47;8.57;;;4.40;;
42802;SDS011;28447;48.682;9.022;2024-03-25T06:34:31;9.40;;;5.07;;
42802;SDS011;28447;48.682;9.022;2024-03-25T06:36:57;9.10;;;5.00;;
42802;SDS011;28447;48.682;9.022;2024-03-25T06:39:23;7.20;;;4.70;;
42802;SDS011;28447;48.682;9.022;2024-03-25T06:41:49;10.80;;;5.30;;
42802;SDS011;28447;48.682;9.022;2024-03-25T06:44:15;10.47;;;5.17;;
42802;SDS011;28447;48.682;9.022;2024-03-25T06:46:41;8.10;;;4.93;;
42802;SDS011;28447;48.682;9.022;2024-03-25T06:49:07;11.53;;;5.57;;
42802;SDS011;28447;48.682;9.022;2024-03-25T06:51:34;11.03;;;4.53;;
42802;SDS011;28447;48.682;9.022;2024-03-25T06:54:00;8.27;;;4.87;;
42802;SDS011;28447;48.682;9.022;2024-03-25T06:56:26;8.03;;;4.87;;
42802;SDS011;28447;48.682;9.022;2024-03-25T06:58:52;8.60;;;5.20;;
42802;SDS011;28447;48.682;9.022;2024-03-25T07:01:18;6.20;;;4.50;;
42802;SDS011;28447;48.682;9.022;2024-03-25T07:03:44;8.57;;;4.70;;
42802;SDS011;28447;48.682;9.022;2024-03-25T07:06:10;6.33;;;4.37;;
42802;SDS011;28447;48.682;9.022;2024-03-25T07:08:36;12.60;;;4.80;;
42802;SDS011;28447;48.682;9.022;2024-03-25T07:11:02;10.87;;;4.93;;
42802;SDS011;28447;48.682;9.022;2024-03-25T07:13:28;9.10;;;4.83;;
42802;SDS011;28447;48.682;9.022;2024-03-25T07:15:54;7.00;;;4.47;;
42802;SDS011;28447;48.682;9.022;2024-03-25T07:18:20;11.57;;;5.57;;
42802;SDS011;28447;48.682;9.022;2024-03-25T07:20:46;7.80;;;5.10;;
42802;SDS011;28447;48.682;9.022;2024-03-25T07:23:12;8.70;;;5.17;;
42802;SDS011;28447;48.682;9.022;2024-03-25T07:25:38;10.23;;;5.10;;
42802;SDS011;28447;48.682;9.022;2024-03-25T07:28:05;10.03;;;5.03;;
42802;SDS011;28447;48.682;9.022;2024-03-25T07:30:31;12.50;;;4.93;;
42802;SDS011;28447;48.682;9.022;2024-03-25T07:32:57;10.07;;;4.53;;
42802;SDS011;28447;48.682;9.022;2024-03-25T07:35:24;12.70;;;4.70;;
42802;SDS011;28447;48.682;9.022;2024-03-25T07:37:50;8.10;;;5.00;;
42802;SDS011;28447;48.682;9.022;2024-03-25T07:40:17;9.40;;;4.60;;
42802;SDS011;28447;48.682;9.022;2024-03-25T07:42:43;7.10;;;4.90;;
42802;SDS011;28447;48.682;9.022;2024-03-25T07:45:09;11.33;;;4.87;;
42802;SDS011;28447;48.682;9.022;2024-03-25T07:47:36;9.97;;;5.03;;
42802;SDS011;28447;48.682;9.022;2024-03-25T07:50:02;6.80;;;4.60;;
42802;SDS011;28447;48.682;9.022;2024-03-25T07:52:30;7.80;;;4.60;;
42802;SDS011;28447;48.682;9.022;2024-03-25T07:54:56;9.53;;;5.07;;
42802;SDS011;28447;48.682;9.022;2024-03-25T07:57:22;6.87;;;4.83;;
42802;SDS011;28447;48.682;9.022;2024-03-25T07:59:49;7.00;;;5.13;;
42802;SDS011;28447;48.682;9.022;2024-03-25T08:02:15;8.13;;;5.70;;
42802;SDS011;28447;48.682;9.022;2024-03-25T08:04:41;8.03;;;4.73;;
42802;SDS011;28447;48.682;9.022;2024-03-25T08:07:07;9.67;;;4.90;;
42802;SDS011;28447;48.682;9.022;2024-03-25T08:09:33;10.77;;;4.50;;
42802;SDS011;28447;48.682;9.022;2024-03-25T08:11:59;5.83;;;4.47;;
42802;SDS011;28447;48.682;9.022;2024-03-25T08:14:25;8.27;;;4.30;;
42802;SDS011;28447;48.682;9.022;2024-03-25T08:16:51;6.90;;;4.90;;
42802;SDS011;28447;48.682;9.022;2024-03-25T08:19:17;8.17;;;6.00;;
42802;SDS011;28447;48.682;9.022;2024-03-25T08:21:43;6.10;;;4.30;;
42802;SDS011;28447;48.682;9.022;2024-03-25T08:24:09;5.37;;;3.93;;
42802;SDS011;28447;48.682;9.022;2024-03-25T08:26:35;6.77;;;4.50;;
42802;SDS011;28447;48.682;9.022;2024-03-25T08:29:01;9.07;;;4.10;;
42802;SDS011;28447;48.682;9.022;2024-03-25T08:31:28;5.57;;;3.90;;
42802;SDS011;28447;48.682;9.022;2024-03-25T08:33:55;6.00;;;3.80;;
42802;SDS011;28447;48.682;9.022;2024-03-25T08:36:21;5.90;;;4.10;;
42802;SDS011;28447;48.682;9.022;2024-03-25T08:38:47;10.47;;;4.17;;
42802;SDS011;28447;48.682;9.022;2024-03-25T08:41:13;4.70;;;3.60;;
42802;SDS011;28447;48.682;9.022;2024-03-25T08:43:40;5.43;;;3.77;;
42802;SDS011;28447;48.682;9.022;2024-03-25T08:46:06;4.37;;;3.50;;
42802;SDS011;28447;48.682;9.022;2024-03-25T08:48:32;4.37;;;3.53;;
42802;SDS011;28447;48.682;9.022;2024-03-25T08:50:58;5.50;;;3.70;;
42802;SDS011;28447;48.682;9.022;2024-03-25T08:53:24;4.77;;;3.60;;
42802;SDS011;28447;48.682;9.022;2024-03-25T08:55:50;7.97;;;4.07;;
42802;SDS011;28447;48.682;9.022;2024-03-25T08:58:16;7.33;;;3.97;;
42802;SDS011;28447;48.682;9.022;2024-03-25T09:00:42;6.27;;;3.90;;
42802;SDS011;28447;48.682;9.022;2024-03-25T09:03:09;7.23;;;4.20;;
42802;SDS011;28447;48.682;9.022;2024-03-25T09:05:35;5.43;;;3.70;;
42802;SDS011;28447;48.682;9.022;2024-03-25T09:08:04;4.73;;;3.80;;
42802;SDS011;28447;48.682;9.022;2024-03-25T09:10:31;8.47;;;4.00;;
42802;SDS011;28447;48.682;9.022;2024-03-25T09:13:23;4.17;;;3.57;;
42802;SDS011;28447;48.682;9.022;2024-03-25T09:15:49;5.47;;;3.30;;
42802;SDS011;28447;48.682;9.022;2024-03-25T09:18:15;5.33;;;3.43;;
42802;SDS011;28447;48.682;9.022;2024-03-25T09:20:43;4.70;;;3.50;;
42802;SDS011;28447;48.682;9.022;2024-03-25T09:23:09;5.93;;;3.70;;
42802;SDS011;28447;48.682;9.022;2024-03-25T09:25:35;6.43;;;3.67;;
42802;SDS011;28447;48.682;9.022;2024-03-25T09:28:01;6.00;;;3.27;;
42802;SDS011;28447;48.682;9.022;2024-03-25T09:30:27;7.43;;;3.90;;
42802;SDS011;28447;48.682;9.022;2024-03-25T09:32:53;6.60;;;3.43;;
42802;SDS011;28447;48.682;9.022;2024-03-25T09:35:19;7.00;;;3.37;;
42802;SDS011;28447;48.682;9.022;2024-03-25T09:37:45;5.97;;;3.47;;
42802;SDS011;28447;48.682;9.022;2024-03-25T09:40:12;5.13;;;3.27;;
42802;SDS011;28447;48.682;9.022;2024-03-25T09:45:07;4.00;;;3.40;;
42802;SDS011;28447;48.682;9.022;2024-03-25T09:47:33;9.30;;;3.93;;
42802;SDS011;28447;48.682;9.022;2024-03-25T09:49:59;6.70;;;3.73;;
42802;SDS011;28447;48.682;9.022;2024-03-25T09:52:28;6.10;;;3.67;;
42802;SDS011;28447;48.682;9.022;2024-03-25T09:54:54;5.00;;;3.10;;
42802;SDS011;28447;48.682;9.022;2024-03-25T09:57:20;5.07;;;3.60;;
42802;SDS011;28447;48.682;9.022;2024-03-25T09:59:47;7.10;;;3.60;;
42802;SDS011;28447;48.682;9.022;2024-03-25T10:02:13;7.67;;;4.20;;
42802;SDS011;28447;48.682;9.022;2024-03-25T10:04:43;7.00;;;3.80;;
42802;SDS011;28447;48.682;9.022;2024-03-25T10:07:10;6.63;;;3.70;;
42802;SDS011;28447;48.682;9.022;2024-03-25T10:09:37;4.00;;;3.60;;
42802;SDS011;28447;48.682;9.022;2024-03-25T10:12:03;4.97;;;4.17;;
42802;SDS011;28447;48.682;9.022;2024-03-25T10:14:29;5.03;;;4.40;;
42802;SDS011;28447;48.682;9.022;2024-03-25T10:16:55;8.70;;;5.07;;
42802;SDS011;28447;48.682;9.022;2024-03-25T10:19:21;6.30;;;3.90;;
42802;SDS011;28447;48.682;9.022;2024-03-25T10:21:47;4.70;;;4.30;;
42802;SDS011;28447;48.682;9.022;2024-03-25T10:24:13;5.30;;;4.60;;
42802;SDS011;28447;48.682;9.022;2024-03-25T10:26:42;5.10;;;4.70;;
42802;SDS011;28447;48.682;9.022;2024-03-25T10:29:08;6.10;;;5.50;;
42802;SDS011;28447;48.682;9.022;2024-03-25T10:31:37;6.60;;;5.27;;
42802;SDS011;28447;48.682;9.022;2024-03-25T10:34:03;6.40;;;5.80;;
42802;SDS011;28447;48.682;9.022;2024-03-25T10:36:29;5.77;;;5.20;;
42802;SDS011;28447;48.682;9.022;2024-03-25T10:38:56;5.23;;;4.73;;
42802;SDS011;28447;48.682;9.022;2024-03-25T10:41:23;6.03;;;4.60;;
42802;SDS011;28447;48.682;9.022;2024-03-25T10:43:51;6.53;;;4.90;;
42802;SDS011;28447;48.682;9.022;2024-03-25T10:46:18;5.73;;;4.83;;
42802;SDS011;28447;48.682;9.022;2024-03-25T10:49:07;6.00;;;5.03;;
42802;SDS011;28447;48.682;9.022;2024-03-25T10:51:33;5.23;;;4.70;;
42802;SDS011;28447;48.682;9.022;2024-03-25T10:54:00;5.33;;;4.80;;
42802;SDS011;28447;48.682;9.022;2024-03-25T10:56:27;5.00;;;4.23;;
42802;SDS011;28447;48.682;9.022;2024-03-25T10:58:53;4.77;;;4.30;;
42802;SDS011;28447;48.682;9.022;2024-03-25T11:01:19;4.47;;;4.07;;
42802;SDS011;28447;48.682;9.022;2024-03-25T11:03:47;6.40;;;4.57;;
42802;SDS011;28447;48.682;9.022;2024-03-25T11:06:14;8.13;;;4.30;;
42802;SDS011;28447;48.682;9.022;2024-03-25T11:08:41;5.17;;;4.10;;
42802;SDS011;28447;48.682;9.022;2024-03-25T11:11:11;4.93;;;4.40;;
42802;SDS011;28447;48.682;9.022;2024-03-25T11:13:37;4.67;;;4.20;;
42802;SDS011;28447;48.682;9.022;2024-03-25T11:16:04;6.70;;;4.43;;
42802;SDS011;28447;48.682;9.022;2024-03-25T11:18:32;8.70;;;4.17;;
42802;SDS011;28447;48.682;9.022;2024-03-25T11:21:02;6.00;;;4.43;;
42802;SDS011;28447;48.682;9.022;2024-03-25T11:23:37;5.27;;;4.13;;
42802;SDS011;28447;48.682;9.022;2024-03-25T11:26:03;4.53;;;3.77;;
42802;SDS011;28447;48.682;9.022;2024-03-25T11:28:30;4.70;;;3.43;;
42802;SDS011;28447;48.682;9.022;2024-03-25T11:30:56;5.93;;;4.00;;
42802;SDS011;28447;48.682;9.022;2024-03-25T11:33:22;4.40;;;3.30;;
42802;SDS011;28447;48.682;9.022;2024-03-25T11:35:49;8.97;;;3.80;;
42802;SDS011;28447;48.682;9.022;2024-03-25T11:38:15;4.37;;;3.93;;
42802;SDS011;28447;48.682;9.022;2024-03-25T11:40:42;4.20;;;3.80;;
42802;SDS011;28447;48.682;9.022;2024-03-25T11:43:09;5.57;;;3.70;;
42802;SDS011;28447;48.682;9.022;2024-03-25T11:45:35;5.40;;;4.30;;
42802;SDS011;28447;48.682;9.022;2024-03-25T11:48:02;5.17;;;4.67;;
42802;SDS011;28447;48.682;9.022;2024-03-25T11:50:28;5.40;;;5.00;;
42802;SDS011;28447;48.682;9.022;2024-03-25T11:52:54;5.23;;;4.73;;
42802;SDS011;28447;48.682;9.022;2024-03-25T11:55:20;5.60;;;5.20;;
42802;SDS011;28447;48.682;9.022;2024-03-25T11:57:46;5.80;;;5.40;;
42802;SDS011;28447;48.682;9.022;2024-03-25T12:00:12;6.50;;;5.90;;
42802;SDS011;28447;48.682;9.022;2024-03-25T12:02:44;7.30;;;6.60;;
42802;SDS011;28447;48.682;9.022;2024-03-25T12:05:11;6.90;;;6.37;;
42802;SDS011;28447;48.682;9.022;2024-03-25T12:07:37;7.13;;;6.60;;
42802;SDS011;28447;48.682;9.022;2024-03-25T12:10:03;6.60;;;6.20;;
42802;SDS011;28447;48.682;9.022;2024-03-25T12:12:48;6.73;;;6.20;;
42802;SDS011;28447;48.682;9.022;2024-03-25T12:15:15;7.50;;;6.80;;
42802;SDS011;28447;48.682;9.022;2024-03-25T12:17:41;7.35;;;6.75;;
42802;SDS011;28447;48.682;9.022;2024-03-25T12:20:08;7.57;;;6.88;;
42802;SDS011;28447;48.682;9.022;2024-03-25T12:22:36;7.27;;;6.67;;
42802;SDS011;28447;48.682;9.022;2024-03-25T12:25:03;7.40;;;6.80;;
42802;SDS011;28447;48.682;9.022;2024-03-25T12:27:31;7.40;;;6.90;;
42802;SDS011;28447;48.682;9.022;2024-03-25T12:30:00;6.90;;;6.40;;
42802;SDS011;28447;48.682;9.022;2024-03-25T12:32:39;7.03;;;6.57;;
42802;SDS011;28447;48.682;9.022;2024-03-25T12:35:07;7.33;;;6.83;;
42802;SDS011;28447;48.682;9.022;2024-03-25T12:37:40;7.50;;;6.90;;
42802;SDS011;28447;48.682;9.022;2024-03-25T12:40:06;7.80;;;7.10;;
42802;SDS011;28447;48.682;9.022;2024-03-25T12:42:33;7.37;;;6.80;;
42802;SDS011;28447;48.682;9.022;2024-03-25T12:45:00;9.07;;;8.37;;
42802;SDS011;28447;48.682;9.022;2024-03-25T12:47:26;8.30;;;7.70;;
42802;SDS011;28447;48.682;9.022;2024-03-25T12:49:52;7.80;;;7.10;;
42802;SDS011;28447;48.682;9.022;2024-03-25T12:52:18;8.27;;;7.57;;
42802;SDS011;28447;48.682;9.022;2024-03-25T12:54:44;7.47;;;6.97;;
42802;SDS011;28447;48.682;9.022;2024-03-25T12:57:13;7.50;;;7.00;;
42802;SDS011;28447;48.682;9.022;2024-03-25T12:59:39;7.20;;;6.70;;
42802;SDS011;28447;48.682;9.022;2024-03-25T13:02:06;7.07;;;6.27;;
42802;SDS011;28447;48.682;9.022;2024-03-25T13:04:34;7.20;;;6.60;;
42802;SDS011;28447;48.682;9.022;2024-03-25T13:07:02;6.77;;;6.20;;
42802;SDS011;28447;48.682;9.022;2024-03-25T13:09:28;7.67;;;6.87;;
42802;SDS011;28447;48.682;9.022;2024-03-25T13:11:55;7.67;;;7.10;;
42802;SDS011;28447;48.682;9.022;2024-03-25T13:14:21;7.53;;;7.03;;
42802;SDS011;28447;48.682;9.022;2024-03-25T13:16:47;7.95;;;7.35;;
42802;SDS011;28447;48.682;9.022;2024-03-25T13:19:13;7.90;;;7.30;;
42802;SDS011;28447;48.682;9.022;2024-03-25T13:21:39;7.82;;;7.07;;
42802;SDS011;28447;48.682;9.022;2024-03-25T13:24:05;7.90;;;7.40;;
42802;SDS011;28447;48.682;9.022;2024-03-25T13:26:31;7.10;;;6.60;;
42802;SDS011;28447;48.682;9.022;2024-03-25T13:28:57;7.53;;;6.80;;
42802;SDS011;28447;48.682;9.022;2024-03-25T13:31:24;8.00;;;7.40;;
42802;SDS011;28447;48.682;9.022;2024-03-25T13:33:50;7.82;;;7.22;;
42802;SDS011;28447;48.682;9.022;2024-03-25T13:36:17;7.20;;;6.80;;
42802;SDS011;28447;48.682;9.022;2024-03-25T13:38:43;7.88;;;7.38;;
42802;SDS011;28447;48.682;9.022;2024-03-25T13:41:09;7.57;;;7.10;;
42802;SDS011;28447;48.682;9.022;2024-03-25T13:43:35;7.13;;;6.65;;
42802;SDS011;28447;48.682;9.022;2024-03-25T13:46:01;8.18;;;7.47;;
42802;SDS011;28447;48.682;9.022;2024-03-25T13:48:27;8.48;;;7.78;;
42802;SDS011;28447;48.682;9.022;2024-03-25T13:50:53;8.00;;;7.25;;
42802;SDS011;28447;48.682;9.022;2024-03-25T13:53:20;8.15;;;7.30;;
42802;SDS011;28447;48.682;9.022;2024-03-25T13:55:46;7.60;;;7.10;;
42802;SDS011;28447;48.682;9.022;2024-03-25T13:58:12;8.27;;;7.70;;
42802;SDS011;28447;48.682;9.022;2024-03-25T14:00:39;8.35;;;7.72;;
42802;SDS011;28447;48.682;9.022;2024-03-25T14:03:05;8.38;;;7.80;;
42802;SDS011;28447;48.682;9.022;2024-03-25T14:05:30;8.38;;;7.70;;
42802;SDS011;28447;48.682;9.022;2024-03-25T14:07:56;8.25;;;7.63;;
42802;SDS011;28447;48.682;9.022;2024-03-25T14:10:22;8.98;;;8.38;;
42802;SDS011;28447;48.682;9.022;2024-03-25T14:12:48;8.63;;;8.13;;
42802;SDS011;28447;48.682;9.022;2024-03-25T14:15:14;8.70;;;8.10;;
42802;SDS011;28447;48.682;9.022;2024-03-25T14:17:40;8.67;;;7.97;;
42802;SDS011;28447;48.682;9.022;2024-03-25T14:20:07;8.13;;;7.53;;
42802;SDS011;28447;48.682;9.022;2024-03-25T14:22:33;8.40;;;7.90;;
42802;SDS011;28447;48.682;9.022;2024-03-25T14:24:59;8.77;;;7.95;;
42802;SDS011;28447;48.682;9.022;2024-03-25T14:27:25;8.50;;;7.80;;
42802;SDS011;28447;48.682;9.022;2024-03-25T14:29:52;8.30;;;7.80;;
42802;SDS011;28447;48.682;9.022;2024-03-25T14:32:18;8.33;;;7.73;;
42802;SDS011;28447;48.682;9.022;2024-03-25T14:34:44;8.13;;;7.60;;
42802;SDS011;28447;48.682;9.022;2024-03-25T14:37:10;7.93;;;7.43;;
42802;SDS011;28447;48.682;9.022;2024-03-25T14:39:37;8.60;;;8.10;;
42802;SDS011;28447;48.682;9.022;2024-03-25T14:42:03;9.00;;;8.30;;
42802;SDS011;28447;48.682;9.022;2024-03-25T14:44:29;9.38;;;8.70;;
42802;SDS011;28447;48.682;9.022;2024-03-25T14:46:55;9.77;;;9.00;;
42802;SDS011;28447;48.682;9.022;2024-03-25T14:49:23;8.70;;;8.00;;
42802;SDS011;28447;48.682;9.022;2024-03-25T14:51:49;8.32;;;7.70;;
42802;SDS011;28447;48.682;9.022;2024-03-25T14:54:17;8.23;;;7.73;;
42802;SDS011;28447;48.682;9.022;2024-03-25T14:56:43;9.93;;;7.87;;
42802;SDS011;28447;48.682;9.022;2024-03-25T14:59:09;8.30;;;7.70;;
42802;SDS011;28447;48.682;9.022;2024-03-25T15:01:35;8.27;;;7.67;;
42802;SDS011;28447;48.682;9.022;2024-03-25T15:04:02;9.00;;;8.40;;
42802;SDS011;28447;48.682;9.022;2024-03-25T15:06:28;8.43;;;7.93;;
42802;SDS011;28447;48.682;9.022;2024-03-25T15:08:54;8.53;;;7.87;;
42802;SDS011;28447;48.682;9.022;2024-03-25T15:11:20;8.80;;;8.03;;
42802;SDS011;28447;48.682;9.022;2024-03-25T15:13:46;8.30;;;7.70;;
42802;SDS011;28447;48.682;9.022;2024-03-25T15:16:12;8.40;;;7.77;;
42802;SDS011;28447;48.682;9.022;2024-03-25T15:18:38;7.80;;;7.20;;
42802;SDS011;28447;48.682;9.022;2024-03-25T15:21:04;7.77;;;7.23;;
42802;SDS011;28447;48.682;9.022;2024-03-25T15:23:31;7.07;;;6.40;;
42802;SDS011;28447;48.682;9.022;2024-03-25T15:25:57;7.40;;;6.73;;
42802;SDS011;28447;48.682;9.022;2024-03-25T15:28:24;7.70;;;7.00;;
42802;SDS011;28447;48.682;9.022;2024-03-25T15:30:52;7.40;;;7.00;;
42802;SDS011;28447;48.682;9.022;2024-03-25T15:33:18;7.40;;;6.90;;
42802;SDS011;28447;48.682;9.022;2024-03-25T15:35:44;7.00;;;6.50;;
42802;SDS011;28447;48.682;9.022;2024-03-25T15:38:10;6.40;;;6.00;;
42802;SDS011;28447;48.682;9.022;2024-03-25T15:40:36;6.70;;;6.07;;
42802;SDS011;28447;48.682;9.022;2024-03-25T15:43:02;6.80;;;6.40;;
42802;SDS011;28447;48.682;9.022;2024-03-25T15:45:28;7.40;;;6.77;;
42802;SDS011;28447;48.682;9.022;2024-03-25T15:47:55;7.00;;;6.37;;
42802;SDS011;28447;48.682;9.022;2024-03-25T15:50:21;7.03;;;6.60;;
42802;SDS011;28447;48.682;9.022;2024-03-25T15:52:50;6.50;;;6.10;;
42802;SDS011;28447;48.682;9.022;2024-03-25T15:55:16;7.17;;;6.53;;
42802;SDS011;28447;48.682;9.022;2024-03-25T15:57:42;6.80;;;6.37;;
42802;SDS011;28447;48.682;9.022;2024-03-25T16:00:08;6.77;;;6.27;;
42802;SDS011;28447;48.682;9.022;2024-03-25T16:02:35;6.80;;;6.40;;
42802;SDS011;28447;48.682;9.022;2024-03-25T16:05:01;6.50;;;6.10;;
42802;SDS011;28447;48.682;9.022;2024-03-25T16:07:28;7.00;;;6.50;;
42802;SDS011;28447;48.682;9.022;2024-03-25T16:09:55;7.03;;;6.43;;
42802;SDS011;28447;48.682;9.022;2024-03-25T16:12:21;6.57;;;6.07;;
42802;SDS011;28447;48.682;9.022;2024-03-25T16:14:47;6.70;;;6.10;;
42802;SDS011;28447;48.682;9.022;2024-03-25T16:17:13;6.80;;;6.20;;
42802;SDS011;28447;48.682;9.022;2024-03-25T16:19:39;6.50;;;6.00;;
42802;SDS011;28447;48.682;9.022;2024-03-25T16:22:05;7.40;;;6.80;;
42802;SDS011;28447;48.682;9.022;2024-03-25T16:24:31;6.53;;;6.03;;
42802;SDS011;28447;48.682;9.022;2024-03-25T16:26:57;5.63;;;5.23;;
42802;SDS011;28447;48.682;9.022;2024-03-25T16:29:23;6.23;;;5.63;;
42802;SDS011;28447;48.682;9.022;2024-03-25T16:31:50;6.30;;;5.90;;
42802;SDS011;28447;48.682;9.022;2024-03-25T16:34:16;7.47;;;6.27;;
42802;SDS011;28447;48.682;9.022;2024-03-25T16:36:42;6.87;;;6.27;;
42802;SDS011;28447;48.682;9.022;2024-03-25T16:39:08;6.73;;;6.23;;
42802;SDS011;28447;48.682;9.022;2024-03-25T16:41:37;6.90;;;6.50;;
42802;SDS011;28447;48.682;9.022;2024-03-25T16:44:04;6.80;;;6.30;;
42802;SDS011;28447;48.682;9.022;2024-03-25T16:46:30;7.53;;;6.27;;
42802;SDS011;28447;48.682;9.022;2024-03-25T16:48:56;6.80;;;6.20;;
42802;SDS011;28447;48.682;9.022;2024-03-25T16:51:22;8.20;;;7.40;;
42802;SDS011;28447;48.682;9.022;2024-03-25T16:53:49;7.23;;;6.63;;
42802;SDS011;28447;48.682;9.022;2024-03-25T16:56:15;7.90;;;6.43;;
42802;SDS011;28447;48.682;9.022;2024-03-25T16:58:41;6.20;;;5.80;;
42802;SDS011;28447;48.682;9.022;2024-03-25T17:01:07;7.33;;;6.70;;
42802;SDS011;28447;48.682;9.022;2024-03-25T17:03:33;6.80;;;6.40;;
42802;SDS011;28447;48.682;9.022;2024-03-25T17:06:00;6.57;;;6.07;;
42802;SDS011;28447;48.682;9.022;2024-03-25T17:08:26;6.33;;;5.80;;
42802;SDS011;28447;48.682;9.022;2024-03-25T17:10:52;6.30;;;5.80;;
42802;SDS011;28447;48.682;9.022;2024-03-25T17:13:18;6.53;;;6.00;;
42802;SDS011;28447;48.682;9.022;2024-03-25T17:15:44;7.77;;;7.10;;
42802;SDS011;28447;48.682;9.022;2024-03-25T17:18:11;7.93;;;6.47;;
42802;SDS011;28447;48.682;9.022;2024-03-25T17:20:38;5.70;;;5.30;;
42802;SDS011;28447;48.682;9.022;2024-03-25T17:23:04;5.80;;;5.37;;
42802;SDS011;28447;48.682;9.022;2024-03-25T17:25:30;5.43;;;5.03;;
42802;SDS011;28447;48.682;9.022;2024-03-25T17:27:57;5.90;;;5.50;;
42802;SDS011;28447;48.682;9.022;2024-03-25T17:30:23;5.93;;;5.50;;
42802;SDS011;28447;48.682;9.022;2024-03-25T17:32:49;6.73;;;6.13;;
42802;SDS011;28447;48.682;9.022;2024-03-25T17:35:15;5.80;;;5.40;;
42802;SDS011;28447;48.682;9.022;2024-03-25T17:37:41;6.70;;;5.30;;
42802;SDS011;28447;48.682;9.022;2024-03-25T17:40:07;5.63;;;5.23;;
42802;SDS011;28447;48.682;9.022;2024-03-25T17:42:35;5.70;;;5.20;;
42802;SDS011;28447;48.682;9.022;2024-03-25T17:45:01;7.80;;;4.90;;
42802;SDS011;28447;48.682;9.022;2024-03-25T17:47:27;4.93;;;4.63;;
42802;SDS011;28447;48.682;9.022;2024-03-25T17:49:53;5.57;;;5.07;;
42802;SDS011;28447;48.682;9.022;2024-03-25T17:52:20;5.83;;;5.33;;
42802;SDS011;28447;48.682;9.022;2024-03-25T17:54:46;5.53;;;5.00;;
42802;SDS011;28447;48.682;9.022;2024-03-25T17:57:12;5.47;;;5.07;;
42802;SDS011;28447;48.682;9.022;2024-03-25T17:59:41;6.13;;;4.93;;
42802;SDS011;28447;48.682;9.022;2024-03-25T18:02:07;5.37;;;4.93;;
42802;SDS011;28447;48.682;9.022;2024-03-25T18:04:33;4.97;;;4.37;;
42802;SDS011;28447;48.682;9.022;2024-03-25T18:06:59;5.77;;;5.20;;
42802;SDS011;28447;48.682;9.022;2024-03-25T18:09:25;7.30;;;6.03;;
42802;SDS011;28447;48.682;9.022;2024-03-25T18:11:51;6.37;;;5.47;;
42802;SDS011;28447;48.682;9.022;2024-03-25T18:14:17;6.43;;;5.27;;
42802;SDS011;28447;48.682;9.022;2024-03-25T18:16:44;6.13;;;5.40;;
42802;SDS011;28447;48.682;9.022;2024-03-25T18:19:10;5.80;;;5.30;;
42802;SDS011;28447;48.682;9.022;2024-03-25T18:21:36;5.90;;;5.20;;
42802;SDS011;28447;48.682;9.022;2024-03-25T18:24:02;5.30;;;4.80;;
42802;SDS011;28447;48.682;9.022;2024-03-25T18:26:29;5.83;;;4.90;;
42802;SDS011;28447;48.682;9.022;2024-03-25T18:28:56;6.43;;;4.80;;
42802;SDS011;28447;48.682;9.022;2024-03-25T18:31:23;8.30;;;4.37;;
42802;SDS011;28447;48.682;9.022;2024-03-25T18:33:49;10.73;;;5.07;;
42802;SDS011;28447;48.682;9.022;2024-03-25T18:36:16;5.80;;;4.73;;
42802;SDS011;28447;48.682;9.022;2024-03-25T18:38:42;4.93;;;4.53;;
42802;SDS011;28447;48.682;9.022;2024-03-25T18:41:08;4.90;;;4.50;;
42802;SDS011;28447;48.682;9.022;2024-03-25T18:43:34;6.70;;;4.53;;
42802;SDS011;28447;48.682;9.022;2024-03-25T18:46:00;4.90;;;4.30;;
42802;SDS011;28447;48.682;9.022;2024-03-25T18:48:26;6.93;;;4.87;;
42802;SDS011;28447;48.682;9.022;2024-03-25T18:50:52;5.10;;;4.60;;
42802;SDS011;28447;48.682;9.022;2024-03-25T18:53:18;6.67;;;4.37;;
42802;SDS011;28447;48.682;9.022;2024-03-25T18:55:44;6.93;;;4.70;;
42802;SDS011;28447;48.682;9.022;2024-03-25T18:58:11;5.10;;;4.40;;
42802;SDS011;28447;48.682;9.022;2024-03-25T19:00:37;5.30;;;4.27;;
42802;SDS011;28447;48.682;9.022;2024-03-25T19:03:03;4.60;;;4.20;;
42802;SDS011;28447;48.682;9.022;2024-03-25T19:05:32;6.43;;;4.10;;
42802;SDS011;28447;48.682;9.022;2024-03-25T19:07:58;4.47;;;4.10;;
42802;SDS011;28447;48.682;9.022;2024-03-25T19:10:24;4.40;;;4.00;;
42802;SDS011;28447;48.682;9.022;2024-03-25T19:12:50;5.60;;;3.93;;
42802;SDS011;28447;48.682;9.022;2024-03-25T19:15:16;6.40;;;4.40;;
42802;SDS011;28447;48.682;9.022;2024-03-25T19:17:42;5.83;;;4.57;;
42802;SDS011;28447;48.682;9.022;2024-03-25T19:20:08;6.40;;;4.80;;
42802;SDS011;28447;48.682;9.022;2024-03-25T19:22:37;5.00;;;4.50;;
42802;SDS011;28447;48.682;9.022;2024-03-25T19:25:03;9.27;;;4.80;;
42802;SDS011;28447;48.682;9.022;2024-03-25T19:27:29;5.07;;;4.57;;
42802;SDS011;28447;48.682;9.022;2024-03-25T19:29:58;5.37;;;4.70;;
42802;SDS011;28447;48.682;9.022;2024-03-25T19:32:24;5.47;;;4.97;;
42802;SDS011;28447;48.682;9.022;2024-03-25T19:34:50;5.03;;;4.63;;
42802;SDS011;28447;48.682;9.022;2024-03-25T19:37:16;5.30;;;4.37;;
42802;SDS011;28447;48.682;9.022;2024-03-25T19:39:42;5.80;;;5.30;;
42802;SDS011;28447;48.682;9.022;2024-03-25T19:42:10;10.93;;;9.50;;
42802;SDS011;28447;48.682;9.022;2024-03-25T19:44:36;8.00;;;6.00;;